Monte Carlo — WDD6745 — position and weather

sailwx.info

Track history (hours):
 
Tides and Currents Weather Stations Pressure Air Temp Water Temp Dewpoint Dewpoint Depression Visibility Wind Speed Wind Dir Waves Ship Positions

Monte Carlo

Owner: PREMIER FISH CO., REDONDO BEACH, CA. More information available from US FCC via Universal Licensing System and Coast Guard Vessel Documentation Center.

Last reported at 2017-Oct-18 22:55 UTC. Time now 2017-Oct-20 03:21 UTC.
Position N 33°43' W 118°16'.

Length 22 m.

Type: Fishing. MMSI: 367176990.

Date/timePositionNaut miles runAvg speedWind from/ knotsBaromVisibWave heightAir tempDewpointWater temp
2017-Oct-18 22:55N 33°43' W 118°16'3 6.7
2017-Oct-18 22:30N 33°40' W 118°17'0 0.1
2017-Oct-18 21:59N 33°40' W 118°16'0 0.1
2017-Oct-18 21:30N 33°40' W 118°17'1 1.7
2017-Oct-18 20:58N 33°39' W 118°16'0 0.6
2017-Oct-18 20:29N 33°39' W 118°16'0 0.6
2017-Oct-18 20:00N 33°40' W 118°16'0 0.0
2017-Oct-18 19:26N 33°40' W 118°16'1 1.9
2017-Oct-18 19:00N 33°40' W 118°17'0 0.8
2017-Oct-18 18:30N 33°40' W 118°18'1 1.7
2017-Oct-18 17:53N 33°41' W 118°17'2 4.3
2017-Oct-18 17:30N 33°43' W 118°16'1 0.1
2017-Oct-17 23:02N 33°42' W 118°15'0 6.9
2017-Oct-17 23:00N 33°42' W 118°15'3 1.6
2017-Oct-17 21:23N 33°40' W 118°17'0 0.1
2017-Oct-17 20:54N 33°40' W 118°17'1 1.1
2017-Oct-17 20:25N 33°40' W 118°17'0 0.0
2017-Oct-17 19:59N 33°40' W 118°17'0 0.2
2017-Oct-17 19:28N 33°40' W 118°17'0 0.0
2017-Oct-17 18:50N 33°40' W 118°17'0 0.0
2017-Oct-17 18:07N 33°40' W 118°17'1 5.9
2017-Oct-17 17:56N 33°41' W 118°16'2 4.7
2017-Oct-17 17:30N 33°43' W 118°16'1 1.6
2017-Oct-17 17:00N 33°43' W 118°17'0 0.0
2017-Oct-17 16:27N 33°43' W 118°17'1 0.1
2017-Oct-17 00:04N 33°43' W 118°16'0 8.3
2017-Oct-17 00:00N 33°43' W 118°15'8 8.3
2017-Oct-16 23:06N 33°44' W 118°24'1 9.2
2017-Oct-16 23:00N 33°44' W 118°25'3 6.2
2017-Oct-16 22:30N 33°47' W 118°28'1 1.0
2017-Oct-16 21:50N 33°47' W 118°28'0 0.3
2017-Oct-16 21:30N 33°47' W 118°28'0 0.1
2017-Oct-16 20:57N 33°47' W 118°28'1 1.1
2017-Oct-16 20:27N 33°46' W 118°28'0 0.5
2017-Oct-16 19:55N 33°46' W 118°28'0 0.2
2017-Oct-16 19:30N 33°46' W 118°28'1 1.5
2017-Oct-16 18:55N 33°46' W 118°27'2 5.3
2017-Oct-16 18:30N 33°44' W 118°25'4 8.7
2017-Oct-16 18:00N 33°43' W 118°20'4 7.5
2017-Oct-16 17:30N 33°43' W 118°15'2 2.9
2017-Oct-16 16:59N 33°43' W 118°17'  
2017-Oct-10 23:20N 33°43' W 118°16'2 5.0
2017-Oct-10 23:00N 33°42' W 118°18'4 8.5
2017-Oct-10 22:30N 33°43' W 118°22'4 1.9
2017-Oct-10 20:11N 33°47' W 118°26'0 1.8
2017-Oct-10 19:57N 33°46' W 118°26'0 0.2
2017-Oct-10 19:30N 33°46' W 118°26'0 0.1
2017-Oct-10 19:00N 33°46' W 118°26'3 6.8
2017-Oct-10 18:30N 33°44' W 118°23'4 8.3
2017-Oct-10 17:59N 33°42' W 118°19'3 5.2
2017-Oct-10 17:30N 33°43' W 118°16'1 2.6
2017-Oct-10 17:00N 33°43' W 118°17'1 1.8
2017-Oct-10 16:30N 33°44' W 118°16'1 2.3
2017-Oct-10 16:00N 33°43' W 118°17'1 0.0
2017-Oct-09 23:27N 33°43' W 118°16'2 4.6
2017-Oct-09 23:01N 33°42' W 118°18'3 5.9
2017-Oct-09 22:31N 33°43' W 118°22'4 8.1
2017-Oct-09 22:01N 33°45' W 118°26'2 4.6
2017-Oct-09 21:31N 33°47' W 118°28'1 1.2
2017-Oct-09 21:01N 33°46' W 118°28'0 0.0
2017-Oct-09 20:30N 33°46' W 118°28'0 0.0
2017-Oct-09 18:58N 33°46' W 118°28'3 5.9
2017-Oct-09 18:30N 33°44' W 118°25'6 8.8
2017-Oct-09 17:47N 33°42' W 118°18'2 8.8
2017-Oct-09 17:31N 33°42' W 118°15'2 3.6
2017-Oct-09 17:01N 33°43' W 118°17'0 0.0
2017-Oct-09 16:31N 33°43' W 118°17'  
Track history (hours):
 
Tides and Currents Weather Stations Pressure Air Temp Water Temp Dewpoint Dewpoint Depression Visibility Wind Speed Wind Dir Waves Ship Positions

Monte Carlo

Owner: PREMIER FISH CO., REDONDO BEACH, CA. More information available from US FCC via Universal Licensing System and Coast Guard Vessel Documentation Center.

Last reported at 2017-Oct-18 22:55 UTC. Time now 2017-Oct-20 03:21 UTC.
Position N 33°43' W 118°16'.

Length 22 m.

Type: Fishing. MMSI: 367176990.

Date/timePositionNaut miles runAvg speedWind from/ knotsBaromVisibWave heightAir tempDewpointWater temp
2017-Oct-18 22:55N 33°43' W 118°16'3 6.7
2017-Oct-18 22:30N 33°40' W 118°17'0 0.1
2017-Oct-18 21:59N 33°40' W 118°16'0 0.1
2017-Oct-18 21:30N 33°40' W 118°17'1 1.7
2017-Oct-18 20:58N 33°39' W 118°16'0 0.6
2017-Oct-18 20:29N 33°39' W 118°16'0 0.6
2017-Oct-18 20:00N 33°40' W 118°16'0 0.0
2017-Oct-18 19:26N 33°40' W 118°16'1 1.9
2017-Oct-18 19:00N 33°40' W 118°17'0 0.8
2017-Oct-18 18:30N 33°40' W 118°18'1 1.7
2017-Oct-18 17:53N 33°41' W 118°17'2 4.3
2017-Oct-18 17:30N 33°43' W 118°16'1 0.1
2017-Oct-17 23:02N 33°42' W 118°15'0 6.9
2017-Oct-17 23:00N 33°42' W 118°15'3 1.6
2017-Oct-17 21:23N 33°40' W 118°17'0 0.1
2017-Oct-17 20:54N 33°40' W 118°17'1 1.1
2017-Oct-17 20:25N 33°40' W 118°17'0 0.0
2017-Oct-17 19:59N 33°40' W 118°17'0 0.2
2017-Oct-17 19:28N 33°40' W 118°17'0 0.0
2017-Oct-17 18:50N 33°40' W 118°17'0 0.0
2017-Oct-17 18:07N 33°40' W 118°17'1 5.9
2017-Oct-17 17:56N 33°41' W 118°16'2 4.7
2017-Oct-17 17:30N 33°43' W 118°16'1 1.6
2017-Oct-17 17:00N 33°43' W 118°17'0 0.0
2017-Oct-17 16:27N 33°43' W 118°17'1 0.1
2017-Oct-17 00:04N 33°43' W 118°16'0 8.3
2017-Oct-17 00:00N 33°43' W 118°15'8 8.3
2017-Oct-16 23:06N 33°44' W 118°24'1 9.2
2017-Oct-16 23:00N 33°44' W 118°25'3 6.2
2017-Oct-16 22:30N 33°47' W 118°28'1 1.0
2017-Oct-16 21:50N 33°47' W 118°28'0 0.3
2017-Oct-16 21:30N 33°47' W 118°28'0 0.1
2017-Oct-16 20:57N 33°47' W 118°28'1 1.1
2017-Oct-16 20:27N 33°46' W 118°28'0 0.5
2017-Oct-16 19:55N 33°46' W 118°28'0 0.2
2017-Oct-16 19:30N 33°46' W 118°28'1 1.5
2017-Oct-16 18:55N 33°46' W 118°27'2 5.3
2017-Oct-16 18:30N 33°44' W 118°25'4 8.7
2017-Oct-16 18:00N 33°43' W 118°20'4 7.5
2017-Oct-16 17:30N 33°43' W 118°15'2 2.9
2017-Oct-16 16:59N 33°43' W 118°17'  
2017-Oct-10 23:20N 33°43' W 118°16'2 5.0
2017-Oct-10 23:00N 33°42' W 118°18'4 8.5
2017-Oct-10 22:30N 33°43' W 118°22'4 1.9
2017-Oct-10 20:11N 33°47' W 118°26'0 1.8
2017-Oct-10 19:57N 33°46' W 118°26'0 0.2
2017-Oct-10 19:30N 33°46' W 118°26'0 0.1
2017-Oct-10 19:00N 33°46' W 118°26'3 6.8
2017-Oct-10 18:30N 33°44' W 118°23'4 8.3
2017-Oct-10 17:59N 33°42' W 118°19'3 5.2
2017-Oct-10 17:30N 33°43' W 118°16'1 2.6
2017-Oct-10 17:00N 33°43' W 118°17'1 1.8
2017-Oct-10 16:30N 33°44' W 118°16'1 2.3
2017-Oct-10 16:00N 33°43' W 118°17'1 0.0
2017-Oct-09 23:27N 33°43' W 118°16'2 4.6
2017-Oct-09 23:01N 33°42' W 118°18'3 5.9
2017-Oct-09 22:31N 33°43' W 118°22'4 8.1
2017-Oct-09 22:01N 33°45' W 118°26'2 4.6
2017-Oct-09 21:31N 33°47' W 118°28'1 1.2
2017-Oct-09 21:01N 33°46' W 118°28'0 0.0
2017-Oct-09 20:30N 33°46' W 118°28'0 0.0
2017-Oct-09 18:58N 33°46' W 118°28'3 5.9
2017-Oct-09 18:30N 33°44' W 118°25'6 8.8
2017-Oct-09 17:47N 33°42' W 118°18'2 8.8
2017-Oct-09 17:31N 33°42' W 118°15'2 3.6
2017-Oct-09 17:01N 33°43' W 118°17'0 0.0
2017-Oct-09 16:31N 33°43' W 118°17'  

Dump ship's entire track history